Time;durP1;ratioP1;P1;durP2;ratioP2;P2;SDS_P1;SDS_P2;PMS_P1;PMS_P2;Temp;Humidity;BMP_temperature;BMP_pressure;BME280_temperature;BME280_humidity;BME280_pressure;Samples;Min_cycle;Max_cycle;Signal;HPM_P1;HPM_P2
2023/05/11 00:00:36;;;;;;;15.27;8.43;;;14.10;80.70;;;;;;5026577;28;20050;-76
2023/05/11 00:03:03;;;;;;;13.48;7.60;;;14.10;80.70;;;;;;5011252;28;20257;-76
2023/05/11 00:05:30;;;;;;;14.15;7.82;;;14.10;80.70;;;;;;5028757;28;20046;-76
2023/05/11 00:07:57;;;;;;;15.02;8.73;;;14.10;80.80;;;;;;5014573;28;20517;-76
2023/05/11 00:10:24;;;;;;;14.82;8.15;;;14.10;80.70;;;;;;5029972;28;20056;-76
2023/05/11 00:12:53;;;;;;;15.93;8.33;;;14.10;80.80;;;;;;5030714;28;20108;-76
2023/05/11 00:15:20;;;;;;;15.68;7.90;;;14.00;80.90;;;;;;5034575;28;20327;-76
2023/05/11 00:17:47;;;;;;;16.35;8.57;;;14.00;80.90;;;;;;5014180;28;20057;-76
2023/05/11 00:20:14;;;;;;;14.45;8.20;;;14.00;80.80;;;;;;5013129;28;20139;-76
2023/05/11 00:22:41;;;;;;;14.75;8.30;;;14.00;80.90;;;;;;5033072;28;20056;-76
2023/05/11 00:25:09;;;;;;;15.30;8.00;;;14.00;80.90;;;;;;5036414;28;20488;-75
2023/05/11 00:27:36;;;;;;;14.23;7.57;;;14.00;81.00;;;;;;5054531;28;20307;-76
2023/05/11 00:30:05;;;;;;;16.30;8.27;;;14.00;81.00;;;;;;5046333;28;20662;-76
2023/05/11 00:32:32;;;;;;;15.13;7.78;;;14.00;80.90;;;;;;5048482;28;20063;-76
2023/05/11 00:34:59;;;;;;;14.35;7.93;;;14.00;80.90;;;;;;5030081;28;20053;-76
2023/05/11 00:37:26;;;;;;;14.17;8.07;;;14.00;80.80;;;;;;5029855;28;20060;-76
2023/05/11 00:39:53;;;;;;;15.35;8.13;;;14.00;80.80;;;;;;5013885;28;20265;-75
2023/05/11 00:42:20;;;;;;;14.90;8.20;;;13.90;80.80;;;;;;5011631;28;20052;-76
2023/05/11 00:44:47;;;;;;;14.38;8.35;;;13.90;80.80;;;;;;5028134;28;20128;-76
2023/05/11 00:47:15;;;;;;;14.73;8.05;;;13.90;80.80;;;;;;5013229;28;20042;-76
2023/05/11 00:49:42;;;;;;;15.63;8.17;;;13.90;80.90;;;;;;5030546;28;21116;-76
2023/05/11 00:52:10;;;;;;;14.57;7.93;;;13.90;80.80;;;;;;5013311;28;20258;-76
2023/05/11 00:54:37;;;;;;;15.40;8.18;;;13.90;80.90;;;;;;5045983;28;20124;-76
2023/05/11 00:57:04;;;;;;;14.70;8.27;;;13.90;80.80;;;;;;5029993;28;20046;-76
2023/05/11 00:59:31;;;;;;;15.38;8.52;;;13.90;80.80;;;;;;5030729;28;20050;-76
2023/05/11 01:01:58;;;;;;;16.50;8.63;;;13.90;80.80;;;;;;5028272;28;20061;-76
2023/05/11 01:04:27;;;;;;;16.08;8.90;;;13.90;80.80;;;;;;5029910;28;20886;-76
2023/05/11 01:07:03;;;;;;;15.05;8.00;;;13.90;80.80;;;;;;5029145;28;20966;-76
2023/05/11 01:09:50;;;;;;;15.75;8.80;;;13.90;80.80;;;;;;5030050;28;20050;-76
2023/05/11 01:12:26;;;;;;;16.75;8.80;;;13.90;80.80;;;;;;5018371;28;20049;-76
2023/05/11 01:15:00;;;;;;;17.33;9.43;;;13.90;80.90;;;;;;5029881;28;20054;-76
2023/05/11 01:17:49;;;;;;;15.02;8.45;;;13.90;80.80;;;;;;5029615;28;20815;-76
2023/05/11 01:20:23;;;;;;;16.60;9.15;;;13.90;80.90;;;;;;5027888;28;20136;-76
2023/05/11 01:23:32;;;;;;;15.88;9.18;;;13.90;80.90;;;;;;5017126;28;20598;-76
2023/05/11 01:26:35;;;;;;;17.15;8.90;;;13.90;80.80;;;;;;5022271;28;20124;-76
2023/05/11 01:29:22;;;;;;;15.80;9.37;;;13.90;80.90;;;;;;5012620;28;20504;-76
2023/05/11 01:31:54;;;;;;;17.35;9.40;;;13.90;80.80;;;;;;5012592;28;20260;-75
2023/05/11 01:34:24;;;;;;;17.77;9.80;;;13.90;80.80;;;;;;5012915;28;20049;-76
2023/05/11 01:36:55;;;;;;;16.77;9.70;;;13.90;80.90;;;;;;5009180;28;20074;-76
2023/05/11 01:39:27;;;;;;;17.40;9.23;;;13.90;80.90;;;;;;4993914;28;20160;-75
2023/05/11 01:41:55;;;;;;;19.77;10.17;;;13.80;81.00;;;;;;5020489;28;20057;-76
2023/05/11 01:44:30;;;;;;;20.85;10.40;;;13.80;80.90;;;;;;5029169;28;20910;-76
2023/05/11 01:47:00;;;;;;;18.27;9.88;;;13.80;81.00;;;;;;5029110;28;20124;-76
2023/05/11 01:49:28;;;;;;;17.00;9.10;;;13.80;81.00;;;;;;5012894;28;20041;-77
2023/05/11 01:51:57;;;;;;;19.08;9.95;;;13.80;81.00;;;;;;5012604;28;20129;-76
2023/05/11 01:54:25;;;;;;;18.03;9.40;;;13.80;81.00;;;;;;5011556;28;20546;-76
2023/05/11 01:56:53;;;;;;;17.85;9.57;;;13.70;81.00;;;;;;5012900;28;20596;-76
2023/05/11 01:59:21;;;;;;;17.15;9.05;;;13.70;81.00;;;;;;5016435;28;20060;-76
2023/05/11 02:01:48;;;;;;;17.85;9.70;;;13.70;81.00;;;;;;5032220;28;20172;-75
2023/05/11 02:04:19;;;;;;;15.00;8.93;;;13.70;81.00;;;;;;5032471;28;20642;-76
2023/05/11 02:06:48;;;;;;;16.50;9.43;;;13.70;81.10;;;;;;5050545;28;20046;-76
2023/05/11 02:09:16;;;;;;;17.23;9.40;;;13.70;81.10;;;;;;5015214;28;20390;-76
2023/05/11 02:11:44;;;;;;;17.20;9.00;;;13.70;81.10;;;;;;5015621;28;20057;-76
2023/05/11 02:14:12;;;;;;;16.90;9.30;;;13.70;81.10;;;;;;5015742;28;20049;-76
2023/05/11 02:16:40;;;;;;;15.50;8.60;;;13.70;81.10;;;;;;5015683;28;20058;-76
2023/05/11 02:19:07;;;;;;;16.53;8.60;;;13.70;81.10;;;;;;5032839;28;20083;-76
2023/05/11 02:21:38;;;;;;;16.45;8.80;;;13.70;81.20;;;;;;5032066;28;20296;-76
2023/05/11 02:24:07;;;;;;;17.77;9.20;;;13.70;81.20;;;;;;5029299;28;20470;-76
2023/05/11 02:26:35;;;;;;;15.85;9.10;;;13.60;81.20;;;;;;5044858;28;20069;-76
2023/05/11 02:29:02;;;;;;;16.83;9.48;;;13.70;81.20;;;;;;5032781;28;20168;-76
2023/05/11 02:31:36;;;;;;;17.90;9.70;;;13.60;81.20;;;;;;5015776;28;20056;-76
2023/05/11 02:34:07;;;;;;;16.48;8.90;;;13.60;81.20;;;;;;5032428;28;20284;-76
2023/05/11 02:36:39;;;;;;;17.00;9.32;;;13.60;81.20;;;;;;5015246;28;20057;-76
2023/05/11 02:39:11;;;;;;;17.83;9.73;;;13.60;81.20;;;;;;5015346;28;20049;-76
2023/05/11 02:41:42;;;;;;;17.58;9.30;;;13.60;81.20;;;;;;5015045;28;20075;-76
2023/05/11 02:44:14;;;;;;;16.30;8.63;;;13.60;81.30;;;;;;5011118;28;20164;-76
2023/05/11 02:46:45;;;;;;;15.18;8.43;;;13.60;81.30;;;;;;5002353;28;20253;-76
2023/05/11 02:49:15;;;;;;;19.00;9.45;;;13.60;81.20;;;;;;5015068;28;20041;-76
2023/05/11 02:51:46;;;;;;;16.20;8.73;;;13.50;81.20;;;;;;5031444;28;20057;-76
2023/05/11 02:54:14;;;;;;;17.63;9.45;;;13.50;81.30;;;;;;5032198;28;20403;-77
2023/05/11 02:56:46;;;;;;;16.80;9.47;;;13.50;81.40;;;;;;5015453;28;20053;-76
2023/05/11 02:59:15;;;;;;;17.35;9.18;;;13.50;81.30;;;;;;5031583;28;20704;-76
2023/05/11 03:01:42;;;;;;;18.05;9.25;;;13.50;81.30;;;;;;5013539;28;20491;-76
2023/05/11 03:04:11;;;;;;;18.45;9.40;;;13.50;81.30;;;;;;5015422;28;20085;-76
2023/05/11 03:06:38;;;;;;;19.52;10.02;;;13.50;81.40;;;;;;5014862;28;20042;-76
2023/05/11 03:09:09;;;;;;;18.67;9.70;;;13.50;81.40;;;;;;5031334;28;20049;-76
2023/05/11 03:11:41;;;;;;;16.25;9.48;;;13.50;81.40;;;;;;5031129;28;20622;-76
2023/05/11 03:14:09;;;;;;;16.45;9.05;;;13.50;81.50;;;;;;5014736;28;20080;-76
2023/05/11 03:16:37;;;;;;;17.35;9.20;;;13.50;81.30;;;;;;5013663;28;20045;-76
2023/05/11 03:19:06;;;;;;;17.75;8.80;;;13.50;81.40;;;;;;5031831;28;20599;-76
2023/05/11 03:21:37;;;;;;;16.17;8.67;;;13.50;81.40;;;;;;5014651;28;20578;-76
2023/05/11 03:24:06;;;;;;;16.60;9.40;;;13.50;81.40;;;;;;5049256;28;20253;-76
2023/05/11 03:26:36;;;;;;;18.38;9.10;;;13.50;81.40;;;;;;5017084;28;20054;-76
2023/05/11 03:29:03;;;;;;;17.77;9.43;;;13.50;81.50;;;;;;5014449;28;20123;-75
2023/05/11 03:31:30;;;;;;;18.65;9.60;;;13.50;81.40;;;;;;5030726;28;20041;-76
2023/05/11 03:33:59;;;;;;;19.70;9.80;;;13.50;81.50;;;;;;5010109;28;20041;-75
2023/05/11 03:36:27;;;;;;;20.73;10.13;;;13.50;81.60;;;;;;5011187;28;20268;-76
2023/05/11 03:38:57;;;;;;;20.45;10.07;;;13.40;81.60;;;;;;5030991;28;20143;-76
2023/05/11 03:41:27;;;;;;;19.77;9.88;;;13.40;81.60;;;;;;5013720;28;20099;-76
2023/05/11 03:43:58;;;;;;;20.15;9.88;;;13.40;81.50;;;;;;5014137;28;20057;-76
2023/05/11 03:46:28;;;;;;;21.10;10.20;;;13.40;81.60;;;;;;5031035;28;20053;-75
2023/05/11 03:48:55;;;;;;;19.75;10.13;;;13.40;81.50;;;;;;5010953;28;20378;-76
2023/05/11 03:51:25;;;;;;;21.67;10.63;;;13.40;81.60;;;;;;5005986;28;20056;-76
2023/05/11 03:53:52;;;;;;;18.40;9.45;;;13.40;81.60;;;;;;5030958;28;20081;-76
2023/05/11 03:56:20;;;;;;;20.77;10.07;;;13.40;81.60;;;;;;5013750;28;20046;-76
2023/05/11 03:58:47;;;;;;;18.67;10.30;;;13.40;81.70;;;;;;5030482;28;20046;-76
2023/05/11 04:01:16;;;;;;;19.85;10.50;;;13.30;81.70;;;;;;5027297;28;20265;-75
2023/05/11 04:03:50;;;;;;;18.02;10.10;;;13.30;81.80;;;;;;5028089;28;20053;-76
2023/05/11 04:06:17;;;;;;;18.98;9.68;;;13.30;81.80;;;;;;5013653;28;20049;-76
2023/05/11 04:08:46;;;;;;;19.77;9.73;;;13.30;81.80;;;;;;5009999;28;20076;-76
2023/05/11 04:11:13;;;;;;;17.40;8.70;;;13.30;81.80;;;;;;4993998;28;20366;-76
2023/05/11 04:13:40;;;;;;;17.95;8.90;;;13.30;81.80;;;;;;5026184;28;20284;-76
2023/05/11 04:16:07;;;;;;;16.42;8.57;;;13.30;81.90;;;;;;5010418;28;20061;-76
2023/05/11 04:18:35;;;;;;;18.08;8.52;;;13.30;81.90;;;;;;5024430;28;20687;-76
2023/05/11 04:21:02;;;;;;;18.85;9.43;;;13.30;81.90;;;;;;5029661;28;20054;-76
2023/05/11 04:23:29;;;;;;;17.67;9.10;;;13.30;81.90;;;;;;5039289;28;20053;-76
2023/05/11 04:25:58;;;;;;;17.13;8.88;;;13.30;81.90;;;;;;5027129;28;20851;-76
2023/05/11 04:28:26;;;;;;;18.73;9.93;;;13.30;81.90;;;;;;5022650;28;20049;-76
2023/05/11 04:30:54;;;;;;;19.85;9.73;;;13.20;81.90;;;;;;5030728;28;20053;-76
2023/05/11 04:33:22;;;;;;;20.60;9.25;;;13.20;82.00;;;;;;5013045;28;20041;-76
2023/05/11 04:35:51;;;;;;;22.77;10.37;;;13.20;82.00;;;;;;5030056;28;20105;-76
2023/05/11 04:38:18;;;;;;;23.65;10.80;;;13.20;82.00;;;;;;5013103;28;20281;-75
2023/05/11 04:40:46;;;;;;;27.00;11.90;;;13.20;82.10;;;;;;5010877;28;20130;-77
2023/05/11 04:43:14;;;;;;;23.67;11.15;;;13.20;82.10;;;;;;5029436;28;20475;-76
2023/05/11 04:45:41;;;;;;;25.67;11.65;;;13.20;82.10;;;;;;5013899;28;20050;-76
2023/05/11 04:48:08;;;;;;;28.57;12.10;;;13.20;82.10;;;;;;5013328;28;20041;-77
2023/05/11 04:50:37;;;;;;;26.17;11.68;;;13.10;82.10;;;;;;5012893;28;20896;-76
2023/05/11 04:53:05;;;;;;;25.23;11.73;;;13.10;82.20;;;;;;5029413;28;20177;-76
2023/05/11 04:55:32;;;;;;;28.73;11.93;;;13.20;82.20;;;;;;5029794;28;20488;-76
2023/05/11 04:58:00;;;;;;;27.65;12.38;;;13.20;82.20;;;;;;5012050;28;20563;-76
2023/05/11 05:00:27;;;;;;;29.77;12.80;;;13.20;82.10;;;;;;5013094;28;20041;-76
2023/05/11 05:02:54;;;;;;;30.60;13.68;;;13.20;82.10;;;;;;5025579;28;20281;-76
2023/05/11 05:05:22;;;;;;;29.80;13.25;;;13.20;82.20;;;;;;5009178;28;20131;-76
2023/05/11 05:07:49;;;;;;;27.63;13.05;;;13.20;82.20;;;;;;5039585;28;20108;-76
2023/05/11 05:10:18;;;;;;;31.80;13.40;;;13.20;82.20;;;;;;4967037;28;20049;-76
2023/05/11 05:12:46;;;;;;;31.37;14.60;;;13.20;82.20;;;;;;5018961;28;20594;-76
2023/05/11 05:15:13;;;;;;;30.77;12.85;;;13.20;82.20;;;;;;5020626;28;20259;-76
2023/05/11 05:17:40;;;;;;;28.95;13.30;;;13.20;82.20;;;;;;5047907;28;20132;-76
2023/05/11 05:20:08;;;;;;;30.52;13.65;;;13.20;82.20;;;;;;5029453;28;20049;-76
2023/05/11 05:22:35;;;;;;;32.83;14.05;;;13.20;82.10;;;;;;5028193;28;20053;-76
2023/05/11 05:25:03;;;;;;;32.73;14.20;;;13.20;82.00;;;;;;5027250;28;20594;-76
2023/05/11 05:27:32;;;;;;;34.58;14.45;;;13.20;82.00;;;;;;5029737;28;21263;-76
2023/05/11 05:30:00;;;;;;;34.30;14.85;;;13.20;82.20;;;;;;5027111;28;20049;-76
2023/05/11 05:32:27;;;;;;;33.20;14.27;;;13.20;82.20;;;;;;5030734;28;20069;-76
2023/05/11 05:34:54;;;;;;;32.50;14.10;;;13.20;82.30;;;;;;5031719;28;20541;-76
2023/05/11 05:37:21;;;;;;;29.83;13.07;;;13.20;82.30;;;;;;5052328;28;20080;-76
2023/05/11 05:39:48;;;;;;;32.00;14.07;;;13.20;82.20;;;;;;5036546;28;20371;-76
2023/05/11 05:42:16;;;;;;;29.42;12.82;;;13.20;82.30;;;;;;5051222;28;21157;-76
2023/05/11 05:44:44;;;;;;;27.90;13.43;;;13.30;82.50;;;;;;5066203;28;20115;-76
2023/05/11 05:47:11;;;;;;;33.15;14.27;;;13.30;82.60;;;;;;5050528;28;20525;-76
2023/05/11 05:49:38;;;;;;;33.97;14.33;;;13.20;82.50;;;;;;5033760;28;20091;-76
2023/05/11 05:52:07;;;;;;;29.10;13.27;;;13.30;82.60;;;;;;5032510;28;20284;-76
2023/05/11 05:54:34;;;;;;;32.28;13.50;;;13.20;82.60;;;;;;5035617;28;20127;-76
2023/05/11 05:57:02;;;;;;;27.92;12.02;;;13.20;82.70;;;;;;5064439;28;20049;-76
2023/05/11 05:59:29;;;;;;;28.98;12.27;;;13.20;82.70;;;;;;5051936;28;20064;-76
2023/05/11 06:01:59;;;;;;;29.70;12.20;;;13.30;82.90;;;;;;5035812;28;20115;-76
2023/05/11 06:04:26;;;;;;;27.42;12.15;;;13.30;83.00;;;;;;5043723;28;20252;-76
2023/05/11 06:06:56;;;;;;;30.67;12.57;;;13.30;83.10;;;;;;5026628;28;20057;-76
2023/05/11 06:09:24;;;;;;;29.88;13.07;;;13.30;83.10;;;;;;5051329;28;21037;-76
2023/05/11 06:11:52;;;;;;;25.15;11.20;;;13.30;83.20;;;;;;5022618;28;20480;-76
2023/05/11 06:14:21;;;;;;;24.43;11.57;;;13.30;83.10;;;;;;5051141;28;20052;-76
2023/05/11 06:16:51;;;;;;;24.48;11.18;;;13.30;83.30;;;;;;5035679;28;20819;-76
2023/05/11 06:19:20;;;;;;;27.92;12.05;;;13.30;83.30;;;;;;5045167;28;20069;-76
2023/05/11 06:21:47;;;;;;;27.02;12.27;;;13.30;83.50;;;;;;5020467;28;20112;-76
2023/05/11 06:24:15;;;;;;;27.45;12.07;;;13.30;83.50;;;;;;5030201;28;20056;-76
2023/05/11 06:26:44;;;;;;;26.77;12.40;;;13.30;83.60;;;;;;5035470;28;20045;-76
2023/05/11 06:29:11;;;;;;;28.73;12.13;;;13.30;83.70;;;;;;5047047;28;20275;-76
2023/05/11 06:31:39;;;;;;;24.30;12.10;;;13.30;83.50;;;;;;5030051;28;20045;-75
2023/05/11 06:34:08;;;;;;;25.63;11.80;;;13.30;83.60;;;;;;5045836;28;20140;-75
2023/05/11 06:36:36;;;;;;;24.30;11.40;;;13.30;83.70;;;;;;5017778;28;20167;-76
2023/05/11 06:39:05;;;;;;;21.57;10.17;;;13.30;83.70;;;;;;5033943;28;20384;-76
2023/05/11 06:41:35;;;;;;;20.23;9.85;;;13.30;83.70;;;;;;5049998;28;20301;-76
2023/05/11 06:44:03;;;;;;;19.92;9.40;;;13.30;83.60;;;;;;5034970;28;20140;-76
2023/05/11 06:46:36;;;;;;;18.63;9.07;;;13.30;83.70;;;;;;5030922;28;20052;-76
2023/05/11 06:49:04;;;;;;;17.88;8.90;;;13.30;83.60;;;;;;5034687;28;20045;-76
2023/05/11 06:51:31;;;;;;;18.67;8.83;;;13.30;83.60;;;;;;5050415;28;20499;-76
2023/05/11 06:54:00;;;;;;;14.82;7.65;;;13.30;83.70;;;;;;5052197;28;20252;-76
2023/05/11 06:56:30;;;;;;;14.98;7.43;;;13.40;83.70;;;;;;5051572;28;20095;-76
2023/05/11 06:58:57;;;;;;;14.95;7.60;;;13.30;83.80;;;;;;5034417;28;20049;-76
2023/05/11 07:01:24;;;;;;;15.90;7.85;;;13.30;83.80;;;;;;5037185;28;20060;-75
2023/05/11 07:03:54;;;;;;;16.43;8.40;;;13.30;83.90;;;;;;5043174;28;20606;-76
2023/05/11 07:06:21;;;;;;;13.32;7.18;;;13.30;83.90;;;;;;5050605;28;20303;-76
2023/05/11 07:08:48;;;;;;;18.10;8.32;;;13.30;83.90;;;;;;5034090;28;20041;-76
2023/05/11 07:11:17;;;;;;;18.10;8.40;;;13.30;83.90;;;;;;5041843;28;20956;-76
2023/05/11 07:13:45;;;;;;;17.67;8.80;;;13.30;83.90;;;;;;5049398;28;20808;-76
2023/05/11 07:16:12;;;;;;;17.40;8.47;;;13.30;83.90;;;;;;5048465;28;20059;-76
2023/05/11 07:18:39;;;;;;;15.40;7.72;;;13.30;83.90;;;;;;5050477;28;20264;-76
2023/05/11 07:21:06;;;;;;;15.15;7.32;;;13.30;84.00;;;;;;5058423;28;20145;-76
2023/05/11 07:23:33;;;;;;;16.20;7.90;;;13.30;84.10;;;;;;5051198;28;20143;-76
2023/05/11 07:26:03;;;;;;;15.40;7.15;;;13.30;84.10;;;;;;5067889;28;20494;-76
2023/05/11 07:28:31;;;;;;;13.83;7.07;;;13.30;84.20;;;;;;5071394;28;20514;-77
2023/05/11 07:30:58;;;;;;;13.05;6.88;;;13.30;84.30;;;;;;5043969;28;20294;-77
2023/05/11 07:33:25;;;;;;;14.43;7.30;;;13.30;84.30;;;;;;5065777;28;20049;-77
2023/05/11 07:35:52;;;;;;;14.13;7.00;;;13.30;84.30;;;;;;5040059;28;20063;-77
2023/05/11 07:38:19;;;;;;;13.73;6.97;;;13.30;84.30;;;;;;5050369;28;20455;-77
2023/05/11 07:40:46;;;;;;;13.57;6.70;;;13.30;84.30;;;;;;5046633;28;20115;-77
2023/05/11 07:43:13;;;;;;;15.32;6.97;;;13.30;84.40;;;;;;5048359;28;20283;-77
2023/05/11 07:45:42;;;;;;;14.60;7.28;;;13.30;84.50;;;;;;5064045;28;20131;-76
2023/05/11 07:48:09;;;;;;;13.15;6.50;;;13.30;84.50;;;;;;5047532;28;20100;-77
2023/05/11 07:50:36;;;;;;;11.48;6.00;;;13.30;84.50;;;;;;5042647;28;20041;-77
2023/05/11 07:53:03;;;;;;;13.00;6.13;;;13.30;84.40;;;;;;5044531;28;20076;-80
2023/05/11 07:55:30;;;;;;;12.50;6.40;;;13.30;84.20;;;;;;5044224;28;20299;-78
2023/05/11 07:57:57;;;;;;;11.60;5.78;;;13.30;84.30;;;;;;5045334;28;20060;-77
2023/05/11 08:00:24;;;;;;;14.68;6.00;;;13.30;84.30;;;;;;5046291;28;20485;-77
2023/05/11 08:02:53;;;;;;;11.38;5.82;;;13.30;84.30;;;;;;5065832;28;20057;-77
2023/05/11 08:05:20;;;;;;;11.10;5.30;;;13.40;84.30;;;;;;5032990;28;20053;-77
2023/05/11 08:07:47;;;;;;;11.80;5.13;;;13.40;84.20;;;;;;5044150;28;20263;-77
2023/05/11 08:10:14;;;;;;;10.95;5.35;;;13.40;84.10;;;;;;5046782;28;20104;-77
2023/05/11 08:12:41;;;;;;;10.27;5.47;;;13.50;84.00;;;;;;5042186;28;20050;-77
2023/05/11 08:15:09;;;;;;;12.15;4.90;;;13.50;84.00;;;;;;5041774;28;20071;-77
2023/05/11 08:17:36;;;;;;;9.90;4.90;;;13.50;84.00;;;;;;5040522;28;20053;-78
2023/05/11 08:20:06;;;;;;;10.48;4.90;;;13.50;84.10;;;;;;5064605;28;20287;-77
2023/05/11 08:22:34;;;;;;;10.43;4.50;;;13.50;84.40;;;;;;5044004;28;20045;-77
2023/05/11 08:25:02;;;;;;;10.70;4.80;;;13.50;84.40;;;;;;5037923;28;20043;-77
2023/05/11 08:27:29;;;;;;;9.77;4.80;;;13.50;84.60;;;;;;5050993;28;20048;-78
2023/05/11 08:29:56;;;;;;;8.63;3.93;;;13.50;84.70;;;;;;5048911;28;20095;-76
2023/05/11 08:32:24;;;;;;;7.63;3.25;;;13.60;84.80;;;;;;5025444;28;20263;-76
2023/05/11 08:34:51;;;;;;;8.13;3.10;;;13.60;84.80;;;;;;5066800;28;20446;-76
2023/05/11 08:37:20;;;;;;;6.50;2.83;;;13.60;84.80;;;;;;5066169;28;20065;-77
2023/05/11 08:39:47;;;;;;;6.07;2.70;;;13.60;84.90;;;;;;5044277;28;20060;-77
2023/05/11 08:42:16;;;;;;;6.73;2.80;;;13.60;84.80;;;;;;5037409;28;20056;-76
2023/05/11 08:44:44;;;;;;;5.68;2.45;;;13.60;84.90;;;;;;5038485;28;20275;-76
2023/05/11 08:47:11;;;;;;;5.50;1.95;;;13.60;85.10;;;;;;5039045;28;20045;-76
2023/05/11 08:49:38;;;;;;;4.88;2.00;;;13.60;85.20;;;;;;5041364;28;20045;-77
2023/05/11 08:52:06;;;;;;;5.45;1.90;;;13.70;85.30;;;;;;5064612;28;20530;-76
2023/05/11 08:54:34;;;;;;;4.63;1.63;;;13.70;85.30;;;;;;5040193;28;20549;-77
2023/05/11 08:57:02;;;;;;;5.53;1.88;;;13.70;85.40;;;;;;5037619;28;20251;-77
2023/05/11 08:59:29;;;;;;;4.55;1.67;;;13.70;85.40;;;;;;5044516;28;20041;-76
2023/05/11 09:01:58;;;;;;;5.28;2.10;;;13.80;85.20;;;;;;5043587;28;20099;-76
2023/05/11 09:04:26;;;;;;;4.78;1.98;;;13.80;85.40;;;;;;5048089;28;21097;-76
2023/05/11 09:06:54;;;;;;;5.27;1.87;;;13.90;85.40;;;;;;5058967;28;20052;-76
2023/05/11 09:09:22;;;;;;;5.18;1.88;;;13.90;85.30;;;;;;5044908;28;20780;-76
2023/05/11 09:11:50;;;;;;;4.90;1.80;;;13.90;85.30;;;;;;5040585;28;21747;-76
2023/05/11 09:14:17;;;;;;;5.35;2.08;;;13.90;85.40;;;;;;5044426;28;20474;-77
2023/05/11 09:16:45;;;;;;;6.10;2.50;;;13.90;85.40;;;;;;5040427;28;20061;-76
2023/05/11 09:19:15;;;;;;;4.63;1.80;;;13.90;85.40;;;;;;5045998;28;20057;-76
2023/05/11 09:21:42;;;;;;;4.47;1.90;;;13.90;85.50;;;;;;5047501;28;20300;-76
2023/05/11 09:24:11;;;;;;;3.40;1.17;;;14.00;85.40;;;;;;5056877;28;20049;-77
2023/05/11 09:26:38;;;;;;;3.13;0.85;;;14.00;85.60;;;;;;5062111;28;20592;-76
2023/05/11 09:29:06;;;;;;;3.60;1.10;;;14.00;85.50;;;;;;5064507;28;20053;-75
2023/05/11 09:31:39;;;;;;;2.30;0.67;;;14.00;85.40;;;;;;5046508;28;20056;-75
2023/05/11 09:34:10;;;;;;;2.10;0.40;;;14.10;85.50;;;;;;5061310;28;20286;-75
2023/05/11 09:36:37;;;;;;;1.95;0.40;;;14.10;85.50;;;;;;5044153;28;20049;-75
2023/05/11 09:39:05;;;;;;;2.83;0.40;;;14.10;85.40;;;;;;5041488;28;20057;-75
2023/05/11 09:41:32;;;;;;;1.92;0.40;;;14.10;85.40;;;;;;5056586;28;20051;-76
2023/05/11 09:44:08;;;;;;;1.87;0.30;;;14.20;85.70;;;;;;5045461;28;20048;-76
2023/05/11 09:46:37;;;;;;;2.70;0.50;;;14.20;85.70;;;;;;5066097;28;20316;-76
2023/05/11 09:49:04;;;;;;;2.20;0.40;;;14.20;85.80;;;;;;5037789;28;20504;-77
2023/05/11 09:51:34;;;;;;;2.45;0.40;;;14.30;85.90;;;;;;5047240;28;20491;-76
2023/05/11 09:54:03;;;;;;;2.67;0.60;;;14.30;86.10;;;;;;5046749;28;20695;-77
2023/05/11 09:56:45;;;;;;;2.40;0.67;;;14.30;86.10;;;;;;5046293;28;20052;-76
2023/05/11 09:59:15;;;;;;;2.80;0.73;;;14.40;86.10;;;;;;5039059;28;20356;-75
2023/05/11 10:01:42;;;;;;;3.70;0.88;;;14.40;86.20;;;;;;5040271;28;20049;-77
2023/05/11 10:04:09;;;;;;;3.20;0.90;;;14.40;86.10;;;;;;5040954;28;20160;-76
2023/05/11 10:06:51;;;;;;;3.30;1.10;;;14.50;86.00;;;;;;5048008;28;20049;-75
2023/05/11 10:09:23;;;;;;;4.57;2.00;;;14.50;86.10;;;;;;5057502;28;20049;-80
2023/05/11 10:11:50;;;;;;;6.80;3.00;;;14.50;86.20;;;;;;5026113;28;20280;-76
2023/05/11 10:14:21;;;;;;;4.55;1.80;;;14.60;86.20;;;;;;5044399;28;20053;-85
2023/05/11 10:16:48;;;;;;;4.40;1.55;;;14.60;86.20;;;;;;5029660;28;20061;-86
2023/05/11 10:19:15;;;;;;;4.40;1.42;;;14.70;86.30;;;;;;5044271;28;20059;-86
2023/05/11 10:21:42;;;;;;;4.50;1.30;;;14.70;86.30;;;;;;5052934;28;20136;-84
2023/05/11 10:24:10;;;;;;;3.63;1.20;;;14.70;86.20;;;;;;5052378;28;20728;-84
2023/05/11 10:26:41;;;;;;;3.80;1.30;;;14.80;86.20;;;;;;5035194;28;20053;-84
2023/05/11 10:29:09;;;;;;;3.85;1.30;;;14.80;86.10;;;;;;5052382;28;20052;-85
2023/05/11 10:31:39;;;;;;;3.30;1.05;;;14.90;85.90;;;;;;5047099;28;20041;-84
2023/05/11 10:34:11;;;;;;;4.13;1.70;;;14.90;85.80;;;;;;5051265;28;20052;-84
2023/05/11 10:36:39;;;;;;;4.70;1.67;;;14.90;85.80;;;;;;5044238;28;20264;-84
2023/05/11 10:39:06;;;;;;;4.07;1.60;;;15.00;85.70;;;;;;5045245;28;20495;-87
2023/05/11 10:41:47;;;;;;;5.13;2.13;;;15.00;85.70;;;;;;5045116;28;20049;-85
2023/05/11 10:44:40;;;;;;;6.93;2.70;;;15.00;85.70;;;;;;5051949;28;20517;-84
2023/05/11 10:47:32;;;;;;;7.27;3.37;;;15.00;85.60;;;;;;5012835;28;20049;-87
2023/05/11 10:50:21;;;;;;;6.85;3.47;;;15.10;85.60;;;;;;5029111;28;20256;-83
2023/05/11 10:53:13;;;;;;;7.40;3.78;;;15.20;85.70;;;;;;5030941;28;20147;-84
2023/05/11 10:56:00;;;;;;;8.48;4.25;;;15.20;85.70;;;;;;5052909;28;20057;-85
2023/05/11 10:58:44;;;;;;;7.97;4.45;;;15.20;85.90;;;;;;5036022;28;20115;-85
2023/05/11 11:01:37;;;;;;;8.47;3.83;;;15.30;86.10;;;;;;5063550;28;20684;-88
2023/05/11 11:04:06;;;;;;;10.32;4.80;;;15.40;86.10;;;;;;5049091;28;20713;-88
2023/05/11 11:06:34;;;;;;;10.20;4.85;;;15.40;86.00;;;;;;5043892;28;20552;-89
2023/05/11 11:09:04;;;;;;;9.50;4.63;;;15.50;86.00;;;;;;5046699;28;20052;-88
2023/05/11 11:11:34;;;;;;;8.80;4.63;;;15.50;85.90;;;;;;5021336;28;20053;-91
2023/05/11 11:14:04;;;;;;;10.33;5.63;;;15.60;85.90;;;;;;5048135;28;20053;-88
2023/05/11 11:16:32;;;;;;;10.85;6.15;;;15.60;85.80;;;;;;5027408;28;20287;-87
2023/05/11 11:19:38;;;;;;;10.77;5.63;;;15.60;85.70;;;;;;5034420;28;20052;-88
2023/05/11 11:22:26;;;;;;;12.23;6.72;;;15.70;85.40;;;;;;5053596;28;20463;-90
2023/05/11 11:24:53;;;;;;;11.20;5.88;;;15.80;85.30;;;;;;5030058;28;20156;-89
2023/05/11 11:27:57;;;;;;;11.33;6.10;;;15.80;85.10;;;;;;5029187;28;20060;-87
2023/05/11 11:30:27;;;;;;;12.00;6.38;;;15.80;84.90;;;;;;5045079;28;20730;-86
2023/05/11 11:33:28;;;;;;;12.77;7.15;;;15.80;84.80;;;;;;5039158;28;20059;-86
2023/05/11 11:35:56;;;;;;;11.70;6.90;;;15.90;84.60;;;;;;5035252;28;20144;-89
2023/05/11 11:38:25;;;;;;;11.77;6.38;;;15.90;84.60;;;;;;5031538;28;20465;-87
2023/05/11 11:40:53;;;;;;;10.50;5.70;;;15.90;84.40;;;;;;5035437;28;20049;-86
2023/05/11 11:43:21;;;;;;;12.70;5.90;;;16.00;84.20;;;;;;5044549;28;20373;-86
2023/05/11 11:45:53;;;;;;;12.20;6.40;;;16.00;84.10;;;;;;5040745;28;20507;-87
2023/05/11 11:48:31;;;;;;;11.38;6.03;;;16.00;84.00;;;;;;5027268;28;20068;-87
2023/05/11 11:51:05;;;;;;;10.32;5.45;;;16.10;83.80;;;;;;5030080;28;20496;-86
2023/05/11 11:54:06;;;;;;;11.80;6.03;;;16.10;83.70;;;;;;5048115;28;20170;-86
2023/05/11 11:56:43;;;;;;;11.02;6.35;;;16.10;83.50;;;;;;5039463;28;20754;-87
2023/05/11 11:59:17;;;;;;;12.40;6.40;;;16.20;83.50;;;;;;5049515;28;20425;-86
2023/05/11 12:01:45;;;;;;;10.02;5.70;;;16.20;83.30;;;;;;5047295;28;20061;-86
2023/05/11 12:04:50;;;;;;;9.82;5.60;;;16.20;82.90;;;;;;5051117;28;20514;-86
2023/05/11 12:07:21;;;;;;;10.97;5.83;;;16.30;82.80;;;;;;4971841;28;20513;-86
2023/05/11 12:09:48;;;;;;;11.32;5.70;;;16.30;82.70;;;;;;4980566;28;20277;-85
2023/05/11 12:12:17;;;;;;;11.02;6.32;;;16.40;82.70;;;;;;4999884;28;20518;-86
2023/05/11 12:14:47;;;;;;;13.25;7.15;;;16.40;82.50;;;;;;5024141;28;20060;-86
2023/05/11 12:17:36;;;;;;;12.73;6.75;;;16.40;82.50;;;;;;5031309;28;20050;-86
2023/05/11 12:20:15;;;;;;;11.33;6.30;;;16.40;82.30;;;;;;5046709;28;20045;-86
2023/05/11 12:22:45;;;;;;;10.55;5.68;;;16.50;82.10;;;;;;5039995;28;20284;-89
2023/05/11 12:25:16;;;;;;;11.65;5.88;;;16.50;82.00;;;;;;5027394;28;20053;-90
2023/05/11 12:27:51;;;;;;;9.25;5.22;;;16.50;82.00;;;;;;5028978;28;20466;-88
2023/05/11 12:30:22;;;;;;;8.10;4.57;;;16.60;81.70;;;;;;5046160;28;20152;-88
2023/05/11 12:32:50;;;;;;;10.20;5.10;;;16.60;81.50;;;;;;5039746;28;20048;-87
2023/05/11 12:35:23;;;;;;;11.70;5.95;;;16.60;81.20;;;;;;5044297;28;20367;-87
2023/05/11 12:37:54;;;;;;;10.05;5.55;;;16.70;81.00;;;;;;5046618;28;20053;-86
2023/05/11 12:40:22;;;;;;;11.23;5.50;;;16.70;80.90;;;;;;5045854;28;20426;-88
2023/05/11 12:42:51;;;;;;;8.35;4.47;;;16.80;80.90;;;;;;5029542;28;20467;-90
2023/05/11 12:45:18;;;;;;;8.33;4.37;;;16.80;80.90;;;;;;5049807;28;20053;-89
2023/05/11 12:47:47;;;;;;;8.55;4.03;;;16.80;80.50;;;;;;5030704;28;20809;-88
2023/05/11 12:50:14;;;;;;;7.90;3.58;;;16.90;80.20;;;;;;5030105;28;20144;-88
2023/05/11 12:52:42;;;;;;;8.75;3.90;;;16.90;79.70;;;;;;5022614;28;20188;-87